Time;durP1;ratioP1;P1;durP2;ratioP2;P2;SDS_P1;SDS_P2;PMS_P1;PMS_P2;Temp;Humidity;BMP_temperature;BMP_pressure;BME280_temperature;BME280_humidity;BME280_pressure;Samples;Min_cycle;Max_cycle;Signal;HPM_P1;HPM_P2
2023/04/18 00:02:21;;;;;;;;;;;7.20;99.90;;;;;;5175216;27;19910;-39
2023/04/18 00:04:49;;;;;;;;;;;7.20;99.90;;;;;;5167169;27;19918;-40
2023/04/18 00:07:15;;;;;;;;;;;7.10;99.90;;;;;;5154398;27;19908;-40
2023/04/18 00:09:41;;;;;;;;;;;7.10;99.90;;;;;;5154278;27;19907;-39
2023/04/18 00:12:06;;;;;;;;;;;7.10;99.90;;;;;;5153571;27;19932;-41
2023/04/18 00:14:33;;;;;;;;;;;7.00;99.90;;;;;;5157882;27;19918;-40
2023/04/18 00:17:00;;;;;;;;;;;7.00;99.90;;;;;;5174730;27;20288;-39
2023/04/18 00:19:26;;;;;;;;;;;7.00;99.90;;;;;;5174524;27;19906;-40
2023/04/18 00:21:52;;;;;;;;;;;7.00;99.90;;;;;;5175177;27;20367;-40
2023/04/18 00:24:18;;;;;;;;;;;7.00;99.90;;;;;;5175046;27;20009;-40
2023/04/18 00:26:43;;;;;;;;;;;6.90;99.90;;;;;;5174185;27;19998;-39
2023/04/18 00:29:09;;;;;;;;;;;6.90;99.90;;;;;;5174914;27;19918;-39
2023/04/18 00:31:34;;;;;;;;;;;6.80;99.90;;;;;;5174909;27;19970;-40
2023/04/18 00:34:00;;;;;;;;;;;6.80;99.90;;;;;;5174399;27;19998;-39
2023/04/18 00:36:26;;;;;;;;;;;6.80;99.90;;;;;;5165660;27;19925;-41
2023/04/18 00:38:52;;;;;;;;;;;6.80;99.90;;;;;;5174573;27;20414;-39
2023/04/18 00:41:18;;;;;;;;;;;6.70;99.90;;;;;;5174254;27;19956;-40
2023/04/18 00:43:43;;;;;;;;;;;6.70;99.90;;;;;;5174643;27;20021;-39
2023/04/18 00:46:09;;;;;;;;;;;6.70;99.90;;;;;;5174219;27;19906;-39
2023/04/18 00:48:35;;;;;;;;;;;6.70;99.90;;;;;;5174855;27;19907;-40
2023/04/18 00:51:00;;;;;;;;;;;6.70;99.90;;;;;;5174959;27;19921;-39
2023/04/18 00:53:26;;;;;;;;;;;6.60;99.90;;;;;;5173960;27;19906;-40
2023/04/18 00:55:52;;;;;;;;;;;6.70;99.90;;;;;;5174391;27;20002;-39
2023/04/18 00:58:17;;;;;;;;;;;6.70;99.90;;;;;;5174679;27;19914;-40
2023/04/18 01:00:43;;;;;;;;;;;6.60;99.90;;;;;;5173935;27;19944;-40
2023/04/18 01:03:09;;;;;;;;;;;6.60;99.90;;;;;;5174735;27;19950;-40
2023/04/18 01:05:35;;;;;;;;;;;6.60;99.90;;;;;;5177899;27;20270;-40
2023/04/18 01:08:01;;;;;;;;;;;6.70;99.90;;;;;;5177727;27;19913;-39
2023/04/18 01:10:27;;;;;;;;;;;6.60;99.90;;;;;;5178447;27;20357;-40
2023/04/18 01:13:08;;;;;;;;;;;6.60;99.90;;;;;;5178439;27;19949;-40
2023/04/18 01:15:35;;;;;;;;;;;6.60;99.90;;;;;;5177295;27;20302;-39
2023/04/18 01:18:02;;;;;;;;;;;6.50;99.90;;;;;;5178439;27;20159;-40
2023/04/18 01:20:28;;;;;;;;;;;6.50;99.90;;;;;;5178230;27;19907;-40
2023/04/18 01:22:53;;;;;;;;;;;6.50;99.90;;;;;;5177385;27;19921;-39
2023/04/18 01:25:19;;;;;;;;;;;6.50;99.90;;;;;;5178292;27;19907;-40
2023/04/18 01:27:44;;;;;;;;;;;6.50;99.90;;;;;;5178195;27;19911;-39
2023/04/18 01:30:10;;;;;;;;;;;6.50;99.90;;;;;;5177086;27;20262;-40
2023/04/18 01:32:35;;;;;;;;;;;6.50;99.90;;;;;;5178046;27;19907;-39
2023/04/18 01:35:01;;;;;;;;;;;6.50;99.90;;;;;;5178028;27;19913;-40
2023/04/18 01:37:26;;;;;;;;;;;6.50;99.90;;;;;;5177036;27;19910;-40
2023/04/18 01:39:52;;;;;;;;;;;6.50;99.90;;;;;;5177944;27;20006;-39
2023/04/18 01:42:18;;;;;;;;;;;6.40;99.90;;;;;;5177513;27;19910;-39
2023/04/18 01:44:43;;;;;;;;;;;6.40;99.90;;;;;;5177562;27;19910;-40
2023/04/18 01:47:09;;;;;;;;;;;6.40;99.90;;;;;;5177529;27;20383;-39
2023/04/18 01:49:34;;;;;;;;;;;6.40;99.90;;;;;;5176883;27;19950;-39
2023/04/18 01:51:59;;;;;;;;;;;6.40;99.90;;;;;;5177681;27;19959;-39
2023/04/18 01:54:25;;;;;;;;;;;6.40;99.90;;;;;;5177470;27;19908;-39
2023/04/18 01:56:50;;;;;;;;;;;6.40;99.90;;;;;;5176628;27;19917;-40
2023/04/18 01:59:16;;;;;;;;;;;6.40;99.90;;;;;;5177626;27;19921;-40
2023/04/18 02:01:42;;;;;;;;;;;6.40;99.90;;;;;;5177435;27;20368;-39
2023/04/18 02:04:07;;;;;;;;;;;6.40;99.90;;;;;;5176453;27;19914;-39
2023/04/18 02:06:33;;;;;;;;;;;6.50;99.90;;;;;;5177390;27;19907;-39
2023/04/18 02:08:58;;;;;;;;;;;6.50;99.90;;;;;;5177408;27;19907;-39
2023/04/18 02:11:24;;;;;;;;;;;6.50;99.90;;;;;;5176639;27;19907;-41
2023/04/18 02:13:49;;;;;;;;;;;6.50;99.90;;;;;;5177165;27;19994;-40
2023/04/18 02:16:15;;;;;;;;;;;6.60;99.90;;;;;;5176318;27;19907;-39
2023/04/18 02:18:42;;;;;;;;;;;6.60;99.90;;;;;;5176567;27;19979;-40
2023/04/18 02:21:08;;;;;;;;;;;6.60;99.90;;;;;;5177178;27;19914;-40
2023/04/18 02:23:33;;;;;;;;;;;6.70;99.90;;;;;;5176738;27;20010;-40
2023/04/18 02:25:59;;;;;;;;;;;6.70;99.90;;;;;;5176317;27;19957;-40
2023/04/18 02:28:25;;;;;;;;;;;6.70;99.90;;;;;;5176864;27;19931;-41
2023/04/18 02:30:50;;;;;;;;;;;6.70;99.90;;;;;;5176941;27;19907;-39
2023/04/18 02:33:16;;;;;;;;;;;6.80;99.90;;;;;;5175643;27;19918;-41
2023/04/18 02:35:41;;;;;;;;;;;6.80;99.90;;;;;;5176717;27;20310;-39
2023/04/18 02:38:07;;;;;;;;;;;6.80;99.90;;;;;;5176841;27;19906;-40
2023/04/18 02:40:32;;;;;;;;;;;6.80;99.90;;;;;;5175874;27;19907;-40
2023/04/18 02:42:58;;;;;;;;;;;6.80;99.90;;;;;;5176707;27;19967;-40
2023/04/18 02:45:23;;;;;;;;;;;6.80;99.90;;;;;;5176690;27;19962;-40
2023/04/18 02:47:49;;;;;;;;;;;6.80;99.90;;;;;;5175626;27;20005;-39
2023/04/18 02:50:15;;;;;;;;;;;6.80;99.90;;;;;;5176623;27;19907;-41
2023/04/18 02:52:41;;;;;;;;;;;6.80;99.90;;;;;;5175667;27;19907;-41
2023/04/18 02:55:07;;;;;;;;;;;6.90;99.90;;;;;;5176188;27;20001;-41
2023/04/18 02:57:32;;;;;;;;;;;6.90;99.90;;;;;;5176292;27;20043;-42
2023/04/18 02:59:57;;;;;;;;;;;6.90;99.90;;;;;;5175473;27;20232;-41
2023/04/18 03:02:23;;;;;;;;;;;6.90;99.90;;;;;;5175900;27;19918;-41
2023/04/18 03:04:48;;;;;;;;;;;6.90;99.90;;;;;;5168732;27;19907;-40
2023/04/18 03:07:14;;;;;;;;;;;6.90;99.90;;;;;;5158350;27;19914;-42
2023/04/18 03:09:39;;;;;;;;;;;7.00;99.90;;;;;;5167898;27;19921;-40
2023/04/18 03:12:05;;;;;;;;;;;7.00;99.90;;;;;;5176207;27;19914;-41
2023/04/18 03:14:30;;;;;;;;;;;7.00;99.90;;;;;;5164410;27;20322;-41
2023/04/18 03:16:56;;;;;;;;;;;7.00;99.90;;;;;;5155262;27;19907;-40
2023/04/18 03:19:21;;;;;;;;;;;7.00;99.90;;;;;;5155132;27;19914;-41
2023/04/18 03:21:47;;;;;;;;;;;7.00;99.90;;;;;;5154204;27;19911;-41
2023/04/18 03:24:12;;;;;;;;;;;7.00;99.90;;;;;;5162557;27;20293;-41
2023/04/18 03:26:38;;;;;;;;;;;7.00;99.90;;;;;;5175687;27;19907;-41
2023/04/18 03:29:03;;;;;;;;;;;7.00;99.90;;;;;;5174858;27;20380;-40
2023/04/18 03:31:29;;;;;;;;;;;7.00;99.90;;;;;;5175847;27;19914;-40
2023/04/18 03:33:55;;;;;;;;;;;7.00;99.90;;;;;;5175352;27;19910;-42
2023/04/18 03:36:24;;;;;;;;;;;7.10;99.90;;;;;;5174990;27;20379;-41
2023/04/18 03:38:49;;;;;;;;;;;7.10;99.90;;;;;;5175561;27;20265;-40
2023/04/18 03:41:15;;;;;;;;;;;7.00;99.90;;;;;;5175834;27;19907;-40
2023/04/18 03:43:40;;;;;;;;;;;7.10;99.90;;;;;;5174313;27;19919;-40
2023/04/18 03:46:05;;;;;;;;;;;7.00;99.90;;;;;;5175484;27;19906;-42
2023/04/18 03:48:34;;;;;;;;;;;7.00;99.90;;;;;;5175272;27;20001;-41
2023/04/18 03:51:00;;;;;;;;;;;7.00;99.90;;;;;;5174718;27;19907;-41
2023/04/18 03:53:25;;;;;;;;;;;7.00;99.90;;;;;;5175259;27;20009;-40
2023/04/18 03:55:50;;;;;;;;;;;7.00;99.90;;;;;;5175419;27;19959;-41
2023/04/18 03:58:16;;;;;;;;;;;7.00;99.90;;;;;;5174702;27;20424;-41
2023/04/18 04:00:42;;;;;;;;;;;7.00;99.90;;;;;;5175252;27;19911;-41
2023/04/18 04:03:07;;;;;;;;;;;6.90;99.90;;;;;;5174498;27;20403;-41
2023/04/18 04:05:33;;;;;;;;;;;7.00;99.90;;;;;;5175290;27;19911;-40
2023/04/18 04:07:58;;;;;;;;;;;7.00;99.90;;;;;;5175193;27;19990;-41
2023/04/18 04:10:24;;;;;;;;;;;7.00;99.90;;;;;;5174545;27;19907;-41
2023/04/18 04:12:50;;;;;;;;;;;7.00;99.90;;;;;;5175165;27;20250;-40
2023/04/18 04:15:15;;;;;;;;;;;7.00;99.90;;;;;;5175241;27;19914;-41
2023/04/18 04:17:41;;;;;;;;;;;7.00;99.90;;;;;;5174313;27;19907;-40
2023/04/18 04:20:06;;;;;;;;;;;7.00;99.90;;;;;;5175204;27;20366;-41
2023/04/18 04:22:33;;;;;;;;;;;7.00;99.90;;;;;;5175042;27;19911;-42
2023/04/18 04:24:59;;;;;;;;;;;7.00;99.90;;;;;;5174064;27;20365;-41
2023/04/18 04:27:25;;;;;;;;;;;7.10;99.90;;;;;;5175111;27;19986;-40
2023/04/18 04:29:51;;;;;;;;;;;7.00;99.90;;;;;;5174756;27;19919;-40
2023/04/18 04:32:16;;;;;;;;;;;7.00;99.90;;;;;;5173885;27;19911;-42
2023/04/18 04:34:42;;;;;;;;;;;7.00;99.90;;;;;;5174978;27;19914;-41
2023/04/18 04:37:07;;;;;;;;;;;7.00;99.90;;;;;;5175114;27;19907;-41
2023/04/18 04:39:33;;;;;;;;;;;7.00;99.90;;;;;;5176197;27;20063;-42
2023/04/18 04:42:02;;;;;;;;;;;7.00;99.90;;;;;;5179021;27;19911;-41
2023/04/18 04:44:28;;;;;;;;;;;7.10;99.90;;;;;;5179006;27;19918;-42
2023/04/18 04:46:53;;;;;;;;;;;7.10;99.90;;;;;;5178105;27;19911;-40
2023/04/18 04:49:19;;;;;;;;;;;7.10;99.90;;;;;;5179017;27;19907;-41
2023/04/18 04:51:44;;;;;;;;;;;7.20;99.90;;;;;;5178830;27;19917;-41
2023/04/18 04:54:10;;;;;;;;;;;7.20;99.90;;;;;;5177959;27;20380;-40
2023/04/18 04:56:35;;;;;;;;;;;7.20;99.90;;;;;;5178768;27;19942;-42
2023/04/18 04:59:01;;;;;;;;;;;7.20;99.90;;;;;;5178740;27;19993;-42
2023/04/18 05:01:26;;;;;;;;;;;7.30;99.90;;;;;;5177880;27;20352;-41
2023/04/18 05:03:52;;;;;;;;;;;7.20;99.90;;;;;;5178566;27;20360;-41
2023/04/18 05:06:19;;;;;;;;;;;7.20;99.90;;;;;;5177967;27;20318;-41
2023/04/18 05:08:48;;;;;;;;;;;7.30;99.90;;;;;;5178503;27;19911;-40
2023/04/18 05:11:14;;;;;;;;;;;7.20;99.90;;;;;;5178582;27;20299;-39
2023/04/18 05:13:40;;;;;;;;;;;7.30;99.90;;;;;;5177593;27;19911;-42
2023/04/18 05:16:06;;;;;;;;;;;7.30;99.90;;;;;;5178439;27;19914;-40
2023/04/18 05:18:31;;;;;;;;;;;7.30;99.90;;;;;;5178394;27;19997;-40
2023/04/18 05:20:57;;;;;;;;;;;7.20;99.90;;;;;;5177659;27;20518;-40
2023/04/18 05:23:22;;;;;;;;;;;7.30;99.90;;;;;;5178276;27;19915;-40
2023/04/18 05:25:48;;;;;;;;;;;7.30;99.90;;;;;;5177007;27;19918;-41
2023/04/18 05:28:13;;;;;;;;;;;7.30;99.90;;;;;;5158310;27;19911;-41
2023/04/18 05:30:39;;;;;;;;;;;7.30;99.90;;;;;;5174164;27;20556;-41
2023/04/18 05:33:05;;;;;;;;;;;7.30;99.90;;;;;;5166636;27;19963;-40
2023/04/18 05:35:30;;;;;;;;;;;7.40;99.90;;;;;;5177206;27;20349;-42
2023/04/18 05:37:58;;;;;;;;;;;7.40;99.90;;;;;;5165594;27;19914;-40
2023/04/18 05:40:26;;;;;;;;;;;7.40;99.90;;;;;;5166158;27;19967;-40
2023/04/18 05:42:51;;;;;;;;;;;7.50;99.90;;;;;;5155963;27;19915;-42
2023/04/18 05:45:17;;;;;;;;;;;7.50;99.90;;;;;;5172110;27;19913;-42
2023/04/18 05:47:42;;;;;;;;;;;7.50;99.90;;;;;;5176973;27;19921;-41
2023/04/18 05:50:08;;;;;;;;;;;7.50;99.90;;;;;;5176635;27;19907;-42
2023/04/18 05:52:33;;;;;;;;;;;7.60;99.90;;;;;;5174402;27;20310;-40
2023/04/18 05:54:59;;;;;;;;;;;7.60;99.90;;;;;;5171466;27;19918;-42
2023/04/18 05:57:25;;;;;;;;;;;7.60;99.90;;;;;;5175006;27;19911;-40
2023/04/18 05:59:50;;;;;;;;;;;7.60;99.90;;;;;;5173109;27;19911;-42
2023/04/18 06:02:16;;;;;;;;;;;7.60;99.90;;;;;;5176530;27;20411;-40
2023/04/18 06:04:41;;;;;;;;;;;7.70;99.90;;;;;;5176549;27;19911;-40
2023/04/18 06:07:07;;;;;;;;;;;7.70;99.90;;;;;;5166424;27;19930;-41
2023/04/18 06:09:33;;;;;;;;;;;7.70;99.90;;;;;;5156112;27;19914;-40
2023/04/18 06:11:59;;;;;;;;;;;7.80;99.90;;;;;;5156085;27;19907;-41
2023/04/18 06:14:24;;;;;;;;;;;7.80;99.90;;;;;;5173706;27;19914;-41
2023/04/18 06:16:50;;;;;;;;;;;7.80;99.90;;;;;;5175890;27;20254;-42
2023/04/18 06:19:15;;;;;;;;;;;7.80;99.90;;;;;;5177106;27;20349;-40
2023/04/18 06:21:41;;;;;;;;;;;7.90;99.90;;;;;;5177102;27;19907;-41
2023/04/18 06:24:07;;;;;;;;;;;8.00;99.90;;;;;;5176223;27;20288;-41
2023/04/18 06:26:33;;;;;;;;;;;8.10;99.90;;;;;;5177011;27;19907;-41
2023/04/18 06:28:58;;;;;;;;;;;8.20;99.90;;;;;;5176657;27;19925;-40
2023/04/18 06:31:24;;;;;;;;;;;8.30;99.90;;;;;;5176021;27;19914;-41
2023/04/18 06:33:49;;;;;;;;;;;8.30;99.90;;;;;;5176434;27;20357;-42
2023/04/18 06:36:15;;;;;;;;;;;8.40;99.90;;;;;;5176915;27;20318;-40
2023/04/18 06:38:40;;;;;;;;;;;8.50;99.90;;;;;;5176033;27;19921;-41
2023/04/18 06:41:06;;;;;;;;;;;8.50;99.90;;;;;;5175812;27;19918;-41
2023/04/18 06:43:31;;;;;;;;;;;8.60;99.90;;;;;;5176749;27;20382;-41
2023/04/18 06:45:57;;;;;;;;;;;8.60;99.90;;;;;;5175772;27;19906;-40
2023/04/18 06:48:23;;;;;;;;;;;8.70;99.90;;;;;;5170650;27;19941;-41
2023/04/18 06:50:48;;;;;;;;;;;8.70;99.90;;;;;;5175278;27;20280;-40
2023/04/18 06:53:14;;;;;;;;;;;8.80;99.90;;;;;;5174176;27;19918;-42
2023/04/18 06:55:39;;;;;;;;;;;8.80;99.90;;;;;;5176218;27;19907;-40
2023/04/18 06:58:05;;;;;;;;;;;8.90;99.90;;;;;;5175488;27;19948;-41
2023/04/18 07:00:30;;;;;;;;;;;9.00;99.90;;;;;;5175598;27;19913;-41
2023/04/18 07:02:56;;;;;;;;;;;9.10;99.90;;;;;;5175782;27;19914;-42
2023/04/18 07:05:21;;;;;;;;;;;9.10;99.90;;;;;;5176158;27;19907;-41
2023/04/18 07:07:47;;;;;;;;;;;9.10;99.90;;;;;;5174976;27;19918;-41
2023/04/18 07:10:12;;;;;;;;;;;9.20;99.90;;;;;;5170166;27;19937;-41
2023/04/18 07:12:38;;;;;;;;;;;9.20;99.90;;;;;;5175072;27;19915;-40
2023/04/18 07:15:03;;;;;;;;;;;9.20;99.90;;;;;;5173252;27;19964;-41
2023/04/18 07:17:29;;;;;;;;;;;9.30;99.90;;;;;;5176002;27;19907;-42
2023/04/18 07:19:54;;;;;;;;;;;9.40;99.90;;;;;;5173083;27;19914;-41
2023/04/18 07:22:20;;;;;;;;;;;9.50;99.90;;;;;;5163730;27;19919;-42
2023/04/18 07:24:45;;;;;;;;;;;9.50;99.90;;;;;;5166135;27;19963;-41
2023/04/18 07:27:11;;;;;;;;;;;9.70;99.90;;;;;;5174285;27;20345;-40
2023/04/18 07:29:36;;;;;;;;;;;9.80;99.90;;;;;;5166446;27;19919;-41
2023/04/18 07:32:02;;;;;;;;;;;9.80;99.90;;;;;;5174661;27;19922;-41
2023/04/18 07:34:28;;;;;;;;;;;9.90;99.90;;;;;;5175014;27;19993;-40
2023/04/18 07:36:55;;;;;;;;;;;9.90;99.90;;;;;;5175526;27;20345;-40
2023/04/18 07:39:21;;;;;;;;;;;9.90;99.90;;;;;;5175807;27;19910;-41
2023/04/18 07:41:46;;;;;;;;;;;9.80;99.90;;;;;;5174715;27;19914;-40
2023/04/18 07:44:12;;;;;;;;;;;9.80;99.90;;;;;;5174348;27;19919;-43
2023/04/18 07:46:37;;;;;;;;;;;9.80;99.90;;;;;;5161414;27;19962;-41
2023/04/18 07:49:03;;;;;;;;;;;9.80;99.90;;;;;;5164649;27;20347;-41
2023/04/18 07:51:33;;;;;;;;;;;9.80;99.90;;;;;;5158772;27;19910;-42
2023/04/18 07:53:58;;;;;;;;;;;9.90;99.90;;;;;;5169131;27;19907;-41
2023/04/18 07:56:24;;;;;;;;;;;10.00;99.90;;;;;;5172023;27;19914;-41
2023/04/18 07:58:50;;;;;;;;;;;10.00;99.90;;;;;;5170985;27;19953;-40
2023/04/18 08:01:17;;;;;;;;;;;10.10;99.90;;;;;;5172562;27;19950;-40
2023/04/18 08:03:45;;;;;;;;;;;10.20;99.90;;;;;;5172024;27;19929;-40
2023/04/18 08:06:10;;;;;;;;;;;10.30;99.90;;;;;;5173999;27;19911;-41
2023/04/18 08:08:35;;;;;;;;;;;10.40;99.90;;;;;;5155966;27;19911;-41
2023/04/18 08:11:01;;;;;;;;;;;10.40;99.90;;;;;;5169037;27;20377;-42
2023/04/18 08:13:26;;;;;;;;;;;10.50;99.90;;;;;;5165456;27;19919;-41
2023/04/18 08:15:52;;;;;;;;;;;10.50;99.90;;;;;;5169871;27;19938;-41
2023/04/18 08:18:18;;;;;;;;;;;10.60;99.90;;;;;;5158129;27;19908;-42
2023/04/18 08:20:44;;;;;;;;;;;10.70;99.90;;;;;;5166492;27;19962;-42
2023/04/18 08:23:10;;;;;;;;;;;10.80;99.90;;;;;;5164069;27;19969;-41
2023/04/18 08:25:35;;;;;;;;;;;10.90;99.90;;;;;;5163616;27;19983;-40
2023/04/18 08:28:00;;;;;;;;;;;11.00;99.90;;;;;;5165463;27;19993;-41
2023/04/18 08:30:26;;;;;;;;;;;11.10;99.90;;;;;;5176943;27;19926;-42
2023/04/18 08:32:52;;;;;;;;;;;11.30;99.90;;;;;;5178371;27;19911;-40
2023/04/18 08:35:17;;;;;;;;;;;11.40;99.90;;;;;;5178397;27;19907;-42
2023/04/18 08:37:42;;;;;;;;;;;11.40;99.90;;;;;;5177317;27;19915;-40
2023/04/18 08:40:08;;;;;;;;;;;11.40;99.90;;;;;;5178261;27;19914;-42
2023/04/18 08:42:37;;;;;;;;;;;11.50;99.90;;;;;;5178179;27;19927;-40
2023/04/18 08:45:04;;;;;;;;;;;11.50;99.90;;;;;;5177808;27;19907;-40
2023/04/18 08:47:29;;;;;;;;;;;11.60;99.90;;;;;;5178358;27;19911;-41
2023/04/18 08:49:56;;;;;;;;;;;11.60;99.90;;;;;;5163674;27;20007;-40
2023/04/18 08:52:22;;;;;;;;;;;11.70;99.90;;;;;;5167917;27;19918;-41
2023/04/18 08:54:48;;;;;;;;;;;11.70;99.90;;;;;;5177621;27;19911;-40
2023/04/18 08:57:15;;;;;;;;;;;11.80;99.90;;;;;;5178092;27;19911;-40
2023/04/18 08:59:44;;;;;;;;;;;11.80;99.90;;;;;;5164513;27;19911;-40
2023/04/18 09:02:10;;;;;;;;;;;11.80;99.90;;;;;;5177294;27;19911;-39
2023/04/18 09:04:42;;;;;;;;;;;11.80;99.90;;;;;;5176611;27;20293;-40
2023/04/18 09:07:08;;;;;;;;;;;11.80;99.90;;;;;;5175607;27;19929;-40
2023/04/18 09:09:40;;;;;;;;;;;11.90;99.90;;;;;;5171731;27;20350;-40
2023/04/18 09:12:06;;;;;;;;;;;12.10;99.90;;;;;;5163460;27;19934;-40
2023/04/18 09:14:32;;;;;;;;;;;12.10;99.90;;;;;;5167678;27;19907;-40
2023/04/18 09:16:59;;;;;;;;;;;12.20;99.90;;;;;;5168181;27;20353;-40
2023/04/18 09:19:24;;;;;;;;;;;12.20;99.90;;;;;;5172519;27;19915;-41
2023/04/18 09:22:00;;;;;;;;;;;12.40;99.90;;;;;;5171793;27;19929;-40
2023/04/18 09:24:27;;;;;;;;;;;12.60;99.90;;;;;;5178449;27;20397;-40
2023/04/18 09:26:55;;;;;;;;;;;12.80;99.90;;;;;;5177654;27;19929;-40
2023/04/18 09:29:39;;;;;;;;;;;12.80;99.90;;;;;;5177717;27;19947;-40
2023/04/18 09:32:05;;;;;;;;;;;12.80;99.90;;;;;;5178077;27;20005;-41
2023/04/18 09:34:32;;;;;;;;;;;12.80;99.90;;;;;;5177227;27;20043;-41
2023/04/18 09:37:08;;;;;;;;;;;12.90;99.90;;;;;;5177509;27;19911;-40
2023/04/18 09:39:35;;;;;;;;;;;13.00;99.90;;;;;;5177798;27;20266;-41
2023/04/18 09:42:01;;;;;;;;;;;13.00;99.90;;;;;;5177292;27;19907;-41
2023/04/18 09:44:26;;;;;;;;;;;12.90;99.90;;;;;;5175783;27;19919;-40
2023/04/18 09:46:52;;;;;;;;;;;12.90;99.90;;;;;;5177343;27;19963;-41
2023/04/18 09:49:17;;;;;;;;;;;13.00;99.90;;;;;;5166884;27;19911;-41
2023/04/18 09:51:43;;;;;;;;;;;13.00;99.90;;;;;;5157776;27;19922;-40
2023/04/18 09:54:13;;;;;;;;;;;13.10;99.90;;;;;;5159295;27;19914;-41
2023/04/18 09:56:40;;;;;;;;;;;13.20;99.90;;;;;;5171313;27;19934;-40
2023/04/18 09:59:10;;;;;;;;;;;13.20;99.90;;;;;;5173627;27;19911;-41
2023/04/18 10:01:36;;;;;;;;;;;13.40;99.90;;;;;;5176219;27;19914;-42
2023/04/18 10:04:03;;;;;;;;;;;13.60;99.90;;;;;;5174057;27;20261;-41
2023/04/18 10:06:28;;;;;;;;;;;13.70;99.90;;;;;;5176199;27;19911;-41
2023/04/18 10:08:54;;;;;;;;;;;13.70;99.90;;;;;;5175496;27;20276;-42
2023/04/18 10:11:20;;;;;;;;;;;13.80;99.90;;;;;;5177083;27;19911;-40
2023/04/18 10:13:46;;;;;;;;;;;13.80;99.90;;;;;;5176049;27;20362;-40
2023/04/18 10:16:13;;;;;;;;;;;14.00;99.90;;;;;;5175654;27;19907;-41
2023/04/18 10:18:39;;;;;;;;;;;14.20;99.90;;;;;;5175308;27;20429;-41
2023/04/18 10:21:04;;;;;;;;;;;14.20;99.90;;;;;;5175296;27;19910;-41
2023/04/18 10:23:30;;;;;;;;;;;14.30;99.90;;;;;;5156106;27;19967;-41
2023/04/18 10:25:56;;;;;;;;;;;14.30;99.90;;;;;;5156203;27;19946;-41
2023/04/18 10:28:23;;;;;;;;;;;14.40;99.90;;;;;;5162449;27;19911;-40
2023/04/18 10:30:52;;;;;;;;;;;14.40;96.40;;;;;;5155470;27;19911;-42
2023/04/18 10:33:39;;;;;;;;;;;14.40;96.80;;;;;;5170300;27;19911;-41
2023/04/18 10:36:07;;;;;;;;;;;14.50;98.40;;;;;;5164032;27;19915;-41
2023/04/18 10:38:33;;;;;;;;;;;14.60;96.70;;;;;;5159545;27;19915;-42
2023/04/18 10:41:12;;;;;;;;;;;14.60;97.40;;;;;;5156654;27;20258;-41
2023/04/18 10:43:56;;;;;;;;;;;14.70;98.30;;;;;;5156088;27;20422;-44
2023/04/18 10:46:22;;;;;;;;;;;14.80;93.60;;;;;;5155730;27;19907;-40
2023/04/18 10:49:07;;;;;;;;;;;14.80;90.50;;;;;;5155539;27;19990;-41
2023/04/18 10:51:33;;;;;;;;;;;14.90;95.80;;;;;;5167768;27;19933;-42
2023/04/18 10:53:59;;;;;;;;;;;15.00;95.60;;;;;;5176515;27;19911;-41
2023/04/18 10:56:26;;;;;;;;;;;15.10;94.80;;;;;;5176224;27;19997;-40
2023/04/18 10:58:52;;;;;;;;;;;15.10;91.30;;;;;;5175523;27;20246;-40
2023/04/18 11:01:22;;;;;;;;;;;15.20;93.30;;;;;;5176356;27;19959;-42
2023/04/18 11:03:48;;;;;;;;;;;15.20;94.70;;;;;;5174453;27;19919;-40
2023/04/18 11:06:13;;;;;;;;;;;15.40;92.60;;;;;;5165609;27;19911;-40
2023/04/18 11:08:39;;;;;;;;;;;15.40;93.30;;;;;;5169011;27;19934;-40
2023/04/18 11:11:08;;;;;;;;;;;15.40;92.00;;;;;;5175150;27;20033;-40
2023/04/18 11:13:35;;;;;;;;;;;15.40;89.10;;;;;;5174794;27;19934;-40
2023/04/18 11:16:01;;;;;;;;;;;15.60;93.70;;;;;;5173781;27;19918;-42
2023/04/18 11:18:37;;;;;;;;;;;15.70;91.10;;;;;;5174439;27;19911;-42
2023/04/18 11:21:03;;;;;;;;;;;15.70;91.30;;;;;;5168103;27;20003;-41
2023/04/18 11:23:29;;;;;;;;;;;15.80;91.30;;;;;;5176470;27;19980;-43
2023/04/18 11:25:55;;;;;;;;;;;15.90;92.70;;;;;;5176560;27;19907;-41
2023/04/18 11:28:21;;;;;;;;;;;15.70;74.50;;;;;;5165538;27;20018;-40
2023/04/18 11:30:47;;;;;;;;;;;15.40;80.10;;;;;;5155625;27;20007;-40
2023/04/18 11:33:13;;;;;;;;;;;15.50;92.60;;;;;;5160830;27;19946;-41
2023/04/18 11:35:42;;;;;;;;;;;15.50;94.70;;;;;;5164858;27;20362;-40
2023/04/18 11:38:13;;;;;;;;;;;15.40;90.30;;;;;;5154286;27;20445;-40
2023/04/18 11:40:38;;;;;;;;;;;15.40;91.00;;;;;;5173966;27;19989;-40
2023/04/18 11:43:05;;;;;;;;;;;15.50;91.40;;;;;;5175598;27;20010;-42
2023/04/18 11:45:31;;;;;;;;;;;15.60;83.60;;;;;;5174441;27;20365;-41
2023/04/18 11:47:57;;;;;;;;;;;15.80;93.10;;;;;;5159426;27;19907;-41
2023/04/18 11:50:23;;;;;;;;;;;15.90;91.50;;;;;;5155027;27;20238;-40
2023/04/18 11:52:49;;;;;;;;;;;16.00;92.50;;;;;;5175540;27;19914;-41
2023/04/18 11:55:22;;;;;;;;;;;16.20;88.30;;;;;;5175525;27;19913;-40
2023/04/18 11:57:49;;;;;;;;;;;16.20;75.40;;;;;;5175982;27;19918;-41
2023/04/18 12:00:15;;;;;;;;;;;16.40;90.40;;;;;;5158167;27;20388;-40
2023/04/18 12:02:42;;;;;;;;;;;16.40;90.50;;;;;;5154466;27;19911;-40
2023/04/18 12:05:08;;;;;;;;;;;16.50;87.70;;;;;;5155049;27;19921;-41
2023/04/18 12:07:46;;;;;;;;;;;16.50;84.40;;;;;;5152936;27;19911;-41
2023/04/18 12:10:20;;;;;;;;;;;16.60;75.60;;;;;;5175252;27;20400;-40
2023/04/18 12:12:47;;;;;;;;;;;16.70;83.30;;;;;;5175723;27;20377;-41
2023/04/18 12:15:13;;;;;;;;;;;16.80;88.80;;;;;;5175960;27;19914;-41
2023/04/18 12:17:42;;;;;;;;;;;16.80;80.60;;;;;;5175309;27;19974;-40
2023/04/18 12:20:08;;;;;;;;;;;16.80;82.50;;;;;;5175931;27;19957;-40
2023/04/18 12:22:38;;;;;;;;;;;16.90;87.10;;;;;;5166920;27;19987;-40
2023/04/18 12:25:24;;;;;;;;;;;16.90;74.10;;;;;;5167427;27;19918;-40
2023/04/18 12:27:50;;;;;;;;;;;16.90;77.20;;;;;;5175963;27;19907;-41
2023/04/18 12:30:18;;;;;;;;;;;16.90;77.40;;;;;;5161089;27;19922;-43
2023/04/18 12:32:44;;;;;;;;;;;16.80;72.00;;;;;;5175586;27;20077;-40
2023/04/18 12:35:10;;;;;;;;;;;16.90;78.80;;;;;;5158113;27;20428;-42
2023/04/18 12:37:35;;;;;;;;;;;16.90;69.50;;;;;;5154114;27;20353;-40
2023/04/18 12:40:01;;;;;;;;;;;17.00;73.80;;;;;;5154729;27;19942;-41
2023/04/18 12:42:26;;;;;;;;;;;17.00;67.70;;;;;;5172048;27;19911;-41
2023/04/18 12:44:52;;;;;;;;;;;17.00;73.20;;;;;;5175054;27;20253;-42
2023/04/18 12:47:17;;;;;;;;;;;17.00;72.80;;;;;;5175485;27;20264;-40
2023/04/18 12:49:42;;;;;;;;;;;17.20;85.60;;;;;;5174682;27;20005;-41
2023/04/18 12:52:08;;;;;;;;;;;17.40;74.90;;;;;;5174897;27;19911;-42
2023/04/18 12:54:33;;;;;;;;;;;17.60;74.90;;;;;;5175462;27;19959;-42
2023/04/18 12:57:00;;;;;;;;;;;17.80;77.20;;;;;;5174895;27;19907;-40
2023/04/18 12:59:26;;;;;;;;;;;18.00;77.50;;;;;;5174009;27;20276;-41
2023/04/18 13:01:52;;;;;;;;;;;18.10;68.60;;;;;;5178725;27;19917;-41
2023/04/18 13:04:17;;;;;;;;;;;18.20;63.80;;;;;;5178680;27;19998;-40
2023/04/18 13:06:43;;;;;;;;;;;18.10;64.90;;;;;;5177639;27;19919;-40
2023/04/18 13:09:09;;;;;;;;;;;18.10;68.00;;;;;;5174258;27;20347;-40
2023/04/18 13:11:35;;;;;;;;;;;18.30;71.20;;;;;;5151521;27;19910;-41
2023/04/18 13:14:00;;;;;;;;;;;18.60;64.90;;;;;;5157384;27;19907;-41
2023/04/18 13:16:26;;;;;;;;;;;18.70;62.10;;;;;;5157135;27;19919;-41
2023/04/18 13:18:52;;;;;;;;;;;;;;;;;;5156727;27;20361;-40
2023/04/18 13:21:17;;;;;;;;;;;19.00;61.50;;;;;;5157368;27;19966;-41
2023/04/18 13:23:43;;;;;;;;;;;19.10;56.40;;;;;;5157277;27;19915;-41
2023/04/18 13:26:08;;;;;;;;;;;19.30;59.40;;;;;;5156908;27;19914;-40
2023/04/18 13:28:34;;;;;;;;;;;19.50;61.10;;;;;;5156996;27;19911;-42
2023/04/18 13:30:59;;;;;;;;;;;19.60;57.90;;;;;;5157476;27;20376;-41
2023/04/18 13:33:25;;;;;;;;;;;19.80;62.00;;;;;;5156720;27;19911;-41
2023/04/18 13:35:50;;;;;;;;;;;19.90;59.50;;;;;;5156404;27;19946;-42
2023/04/18 13:38:15;;;;;;;;;;;20.10;59.60;;;;;;5157193;27;19912;-41
2023/04/18 13:40:41;;;;;;;;;;;20.20;57.20;;;;;;5162666;27;20362;-41
2023/04/18 13:43:06;;;;;;;;;;;20.40;58.00;;;;;;5169268;27;19970;-41
2023/04/18 13:45:32;;;;;;;;;;;20.40;55.70;;;;;;5163297;27;19907;-42
2023/04/18 13:47:57;;;;;;;;;;;20.60;56.60;;;;;;5156278;27;20345;-41
2023/04/18 13:50:23;;;;;;;;;;;20.80;55.20;;;;;;5156869;27;19907;-41
2023/04/18 13:52:50;;;;;;;;;;;21.00;55.30;;;;;;5156755;27;19915;-43
2023/04/18 13:55:17;;;;;;;;;;;21.00;52.80;;;;;;5161137;27;19907;-41
2023/04/18 13:57:42;;;;;;;;;;;20.70;53.70;;;;;;5171768;27;19935;-41
2023/04/18 14:00:08;;;;;;;;;;;20.10;51.70;;;;;;5176324;27;19907;-42
2023/04/18 14:02:34;;;;;;;;;;;19.50;55.40;;;;;;5168189;27;19958;-42
2023/04/18 14:04:59;;;;;;;;;;;19.70;56.80;;;;;;5157189;27;20396;-42
2023/04/18 14:07:25;;;;;;;;;;;19.60;55.60;;;;;;5157141;27;19907;-41
2023/04/18 14:09:50;;;;;;;;;;;19.00;55.20;;;;;;5162007;27;20412;-41
2023/04/18 14:12:16;;;;;;;;;;;19.00;58.80;;;;;;5176626;27;19940;-42
2023/04/18 14:14:41;;;;;;;;;;;19.30;60.30;;;;;;5177888;27;19922;-41
2023/04/18 14:17:07;;;;;;;;;;;19.30;55.20;;;;;;5172301;27;19913;-42
2023/04/18 14:19:33;;;;;;;;;;;19.20;56.90;;;;;;5177643;27;20221;-42